Safmarine Cameroun — 9V9863 — position and weather

sailwx.info

Track history (hours):
 
Tides and Currents Weather Stations Pressure Air Temp Water Temp Dewpoint Dewpoint Depression Visibility Wind Speed Wind Dir Waves Ship Positions

Safmarine Cameroun

Last reported at 2018-Jun-19 15:16 UTC. Time now 2018-Jun-23 17:37 UTC.
Position N 35°02' W 007°03'.

Length 195 m; draft 9.2 m.

Type: Ship (hazmat cat A). MMSI: 566415000.

Date/timePositionNaut miles runAvg speedWind from/ knotsBaromVisibWave heightAir tempDewpointWater temp
2018-Jun-19 15:16N 35°02' W 007°03'434 9.1
2018-Jun-17 15:21N 29°28' W 012°32'18 9.3
2018-Jun-17 13:23N 29°12' W 012°43'4 9.3
2018-Jun-17 12:56N 29°08' W 012°45'4 9.1
2018-Jun-17 12:28N 29°05' W 012°47'7 8.9
2018-Jun-17 11:43N 28°59' W 012°51'2 8.7
2018-Jun-17 11:29N 28°57' W 012°52'4 8.7
2018-Jun-17 11:00N 28°54' W 012°55'6 8.7
2018-Jun-17 10:20N 28°49' W 012°58'3 8.5
2018-Jun-17 09:58N 28°46' W 012°60'4 8.7
2018-Jun-17 09:27N 28°42' W 013°02'5 8.6
2018-Jun-17 08:54N 28°38' W 013°05'4 8.9
2018-Jun-17 08:29N 28°35' W 013°07'5 9.1
2018-Jun-17 07:55N 28°30' W 013°10'6 9.1
2018-Jun-17 07:14N 28°25' W 013°13'4 8.9
2018-Jun-17 06:49N 28°22' W 013°15'3 9.0
2018-Jun-17 06:29N 28°19' W 013°17'4 9.1
2018-Jun-17 06:00N 28°15' W 013°20'5 9.2
2018-Jun-17 05:30N 28°11' W 013°22'5 9.4
2018-Jun-17 04:59N 28°07' W 013°25'5 9.4
2018-Jun-17 04:30N 28°03' W 013°28'5 9.4
2018-Jun-17 03:59N 27°60' W 013°31'5 9.8
2018-Jun-17 03:30N 27°56' W 013°35'5 9.8
2018-Jun-17 03:00N 27°52' W 013°38'5 9.7
2018-Jun-17 02:30N 27°48' W 013°42'5 9.6
2018-Jun-17 02:00N 27°45' W 013°45'5 9.4
2018-Jun-17 01:30N 27°41' W 013°49'5 9.4
2018-Jun-17 00:57N 27°37' W 013°52'5 9.6
2018-Jun-17 00:28N 27°33' W 013°56'  
Track history (hours):
 
Tides and Currents Weather Stations Pressure Air Temp Water Temp Dewpoint Dewpoint Depression Visibility Wind Speed Wind Dir Waves Ship Positions

Safmarine Cameroun

Last reported at 2018-Jun-19 15:16 UTC. Time now 2018-Jun-23 17:37 UTC.
Position N 35°02' W 007°03'.

Length 195 m; draft 9.2 m.

Type: Ship (hazmat cat A). MMSI: 566415000.

Date/timePositionNaut miles runAvg speedWind from/ knotsBaromVisibWave heightAir tempDewpointWater temp
2018-Jun-19 15:16N 35°02' W 007°03'434 9.1
2018-Jun-17 15:21N 29°28' W 012°32'18 9.3
2018-Jun-17 13:23N 29°12' W 012°43'4 9.3
2018-Jun-17 12:56N 29°08' W 012°45'4 9.1
2018-Jun-17 12:28N 29°05' W 012°47'7 8.9
2018-Jun-17 11:43N 28°59' W 012°51'2 8.7
2018-Jun-17 11:29N 28°57' W 012°52'4 8.7
2018-Jun-17 11:00N 28°54' W 012°55'6 8.7
2018-Jun-17 10:20N 28°49' W 012°58'3 8.5
2018-Jun-17 09:58N 28°46' W 012°60'4 8.7
2018-Jun-17 09:27N 28°42' W 013°02'5 8.6
2018-Jun-17 08:54N 28°38' W 013°05'4 8.9
2018-Jun-17 08:29N 28°35' W 013°07'5 9.1
2018-Jun-17 07:55N 28°30' W 013°10'6 9.1
2018-Jun-17 07:14N 28°25' W 013°13'4 8.9
2018-Jun-17 06:49N 28°22' W 013°15'3 9.0
2018-Jun-17 06:29N 28°19' W 013°17'4 9.1
2018-Jun-17 06:00N 28°15' W 013°20'5 9.2
2018-Jun-17 05:30N 28°11' W 013°22'5 9.4
2018-Jun-17 04:59N 28°07' W 013°25'5 9.4
2018-Jun-17 04:30N 28°03' W 013°28'5 9.4
2018-Jun-17 03:59N 27°60' W 013°31'5 9.8
2018-Jun-17 03:30N 27°56' W 013°35'5 9.8
2018-Jun-17 03:00N 27°52' W 013°38'5 9.7
2018-Jun-17 02:30N 27°48' W 013°42'5 9.6
2018-Jun-17 02:00N 27°45' W 013°45'5 9.4
2018-Jun-17 01:30N 27°41' W 013°49'5 9.4
2018-Jun-17 00:57N 27°37' W 013°52'5 9.6
2018-Jun-17 00:28N 27°33' W 013°56'  

Dump ship's entire track history